Maldives Meteorological Service

TAFS

Station TAF
VRMM
VRMM 020500Z 0206/0312 27013KT 9999 SCT017TCU BKN100 BECMG 0206/0208 29015G32KT 3000 TSRA FEW010 SCT016CB TEMPO 0208/0212 4000 TSRA SCT016CB BKN090=
VRMH
VRMH 020500Z 0206/0312 34010KT 9000 SCT017TCU BKN100 BECMG 0206/0208 5000 TSRA SCT016CB TEMPO 0208/0212 4000 TSRA SCT016CB BKN090=
VRMK
VRMK 020500Z 0206/0306 27010KT 9999 SCT017TCU SCT100 BECMG 0206/0208 28015G30KT 5000 TSRA FEW010 SCT016CB TEMPO 0208/0212 4000 TSRA SCT016CB BKN090=
VRMT
VRMT 020500Z 0206/0306 27010KT 9999 SCT018TCU SCT100 TEMPO 0206/0212 7000 -TSRA=
VRMG
VRMG 020500Z 0206/0312 29012KT 9999 SCT018 TEMPO 0209/0213 6000 -TSRA=